CheckWX is a tool to help pilots better visualize weather data.  It is not intended as a substitute for an official pre-flight weather briefing.

06:15:16 UTC

EGPH METAR
Edinburgh Airport
Edinburgh, United Kingdom
Current

25 mins ago

EGPH 250550Z 26010KT CAVOK 03/00 Q1029
Observed
Mar-25 @ 05:50 UTC
Wind
  • 260° at 10 KTS
Visibility
10,000+ meters
Flight Rules
VFR
Cloud Levels
  • Clear skies
Temperature
C / 37°F
Dewpoint
C / 32°F
Humidity
81%
Altimeter
30.38" Hg
Pressure
1028.91 hPa
Previous

55 mins ago

EGPH 250520Z 25007KT 220V280 CAVOK 02/00 Q1029
Observed
Mar-25 @ 05:20 UTC
Wind
  • 250° at 7 KTS
Visibility
10,000+ meters
Flight Rules
VFR
Cloud Levels
  • Clear skies
Temperature
C / 36°F
Dewpoint
C / 32°F
Humidity
87%
Altimeter
30.38" Hg
Pressure
1028.91 hPa
Previous

1 hour ago

EGPH 250450Z 23008KT CAVOK 01/M01 Q1029
Observed
Mar-25 @ 04:50 UTC
Wind
  • 230° at 8 KTS
Visibility
10,000+ meters
Flight Rules
VFR
Cloud Levels
  • Clear skies
Temperature
C / 34°F
Dewpoint
-1°C / 30°F
Humidity
87%
Altimeter
30.38" Hg
Pressure
1028.91 hPa